sensor_id;sensor_type;location;lat;lon;timestamp;pressure;altitude;pressure_sealevel;temperature;humidity
46392;BME280;32098;49.448;7.904;2023-02-21T00:01:43;98663.66;;;6.00;70.36
46392;BME280;32098;49.448;7.904;2023-02-21T00:04:28;98636.09;;;5.74;71.09
46392;BME280;32098;49.448;7.904;2023-02-21T00:07:14;98650.63;;;5.84;71.72
46392;BME280;32098;49.448;7.904;2023-02-21T00:09:59;98636.84;;;5.89;72.04
46392;BME280;32098;49.448;7.904;2023-02-21T00:12:46;98648.50;;;5.94;71.75
46392;BME280;32098;49.448;7.904;2023-02-21T00:15:33;98640.97;;;5.77;72.23
46392;BME280;32098;49.448;7.904;2023-02-21T00:18:19;98642.75;;;5.70;72.20
46392;BME280;32098;49.448;7.904;2023-02-21T00:21:05;98647.78;;;5.65;72.13
46392;BME280;32098;49.448;7.904;2023-02-21T00:23:51;98630.19;;;5.57;72.00
46392;BME280;32098;49.448;7.904;2023-02-21T00:26:36;98655.25;;;5.76;72.51
46392;BME280;32098;49.448;7.904;2023-02-21T00:29:21;98617.13;;;5.56;72.37
46392;BME280;32098;49.448;7.904;2023-02-21T00:32:06;98663.47;;;5.81;72.18
46392;BME280;32098;49.448;7.904;2023-02-21T00:34:55;98636.63;;;5.69;72.21
46392;BME280;32098;49.448;7.904;2023-02-21T00:37:43;98643.25;;;5.80;72.03
46392;BME280;32098;49.448;7.904;2023-02-21T00:40:29;98660.31;;;5.92;71.58
46392;BME280;32098;49.448;7.904;2023-02-21T00:43:16;98644.03;;;5.74;70.83
46392;BME280;32098;49.448;7.904;2023-02-21T00:46:02;98649.59;;;5.79;70.91
46392;BME280;32098;49.448;7.904;2023-02-21T00:48:47;98639.69;;;5.66;71.24
46392;BME280;32098;49.448;7.904;2023-02-21T00:51:32;98643.38;;;5.51;72.06
46392;BME280;32098;49.448;7.904;2023-02-21T00:54:18;98646.03;;;5.51;72.20
46392;BME280;32098;49.448;7.904;2023-02-21T00:57:04;98625.44;;;5.31;72.79
46392;BME280;32098;49.448;7.904;2023-02-21T00:59:51;98608.16;;;5.21;72.87
46392;BME280;32098;49.448;7.904;2023-02-21T01:02:37;98650.59;;;5.57;73.46
46392;BME280;32098;49.448;7.904;2023-02-21T01:05:25;98634.16;;;5.47;73.05
46392;BME280;32098;49.448;7.904;2023-02-21T01:08:10;98617.03;;;5.28;73.01
46392;BME280;32098;49.448;7.904;2023-02-21T01:10:56;98624.41;;;5.32;73.05
46392;BME280;32098;49.448;7.904;2023-02-21T01:13:45;98621.13;;;5.30;73.52
46392;BME280;32098;49.448;7.904;2023-02-21T01:16:31;98629.25;;;5.44;73.15
46392;BME280;32098;49.448;7.904;2023-02-21T01:19:17;98618.66;;;5.44;73.72
46392;BME280;32098;49.448;7.904;2023-02-21T01:22:05;98614.97;;;5.45;73.42
46392;BME280;32098;49.448;7.904;2023-02-21T01:24:53;98560.50;;;5.21;73.75
46392;BME280;32098;49.448;7.904;2023-02-21T01:27:41;98605.72;;;5.55;73.70
46392;BME280;32098;49.448;7.904;2023-02-21T01:30:30;98587.13;;;5.49;73.69
46392;BME280;32098;49.448;7.904;2023-02-21T01:33:16;98605.28;;;5.52;72.92
46392;BME280;32098;49.448;7.904;2023-02-21T01:36:04;98609.25;;;5.62;72.43
46392;BME280;32098;49.448;7.904;2023-02-21T01:38:50;98573.53;;;5.22;73.21
46392;BME280;32098;49.448;7.904;2023-02-21T01:41:37;98592.25;;;5.35;73.48
46392;BME280;32098;49.448;7.904;2023-02-21T01:44:38;98603.00;;;5.49;73.66
46392;BME280;32098;49.448;7.904;2023-02-21T01:47:25;98584.38;;;5.42;73.25
46392;BME280;32098;49.448;7.904;2023-02-21T01:50:22;98604.00;;;5.48;73.18
46392;BME280;32098;49.448;7.904;2023-02-21T01:53:13;98578.56;;;5.32;73.50
46392;BME280;32098;49.448;7.904;2023-02-21T01:56:00;98586.41;;;5.25;74.28
46392;BME280;32098;49.448;7.904;2023-02-21T01:58:49;98599.22;;;5.07;73.86
46392;BME280;32098;49.448;7.904;2023-02-21T02:02:18;98590.97;;;4.96;74.28
46392;BME280;32098;49.448;7.904;2023-02-21T02:05:07;98610.69;;;4.79;75.24
46392;BME280;32098;49.448;7.904;2023-02-21T02:07:56;98583.31;;;4.57;76.12
46392;BME280;32098;49.448;7.904;2023-02-21T02:10:44;98570.00;;;4.36;76.68
46392;BME280;32098;49.448;7.904;2023-02-21T02:14:08;98586.75;;;4.14;78.32
46392;BME280;32098;49.448;7.904;2023-02-21T02:16:44;98598.53;;;4.26;79.66
46392;BME280;32098;49.448;7.904;2023-02-21T02:27:50;98594.16;;;4.33;76.86
46392;BME280;32098;49.448;7.904;2023-02-21T02:30:34;98600.00;;;4.43;76.51
46392;BME280;32098;49.448;7.904;2023-02-21T02:33:30;98605.47;;;4.56;76.07
46392;BME280;32098;49.448;7.904;2023-02-21T02:36:26;98599.84;;;4.59;76.52
46392;BME280;32098;49.448;7.904;2023-02-21T02:39:20;98595.34;;;4.45;75.63
46392;BME280;32098;49.448;7.904;2023-02-21T02:44:31;98583.72;;;4.17;76.95
46392;BME280;32098;49.448;7.904;2023-02-21T02:47:04;98568.63;;;4.25;76.03
46392;BME280;32098;49.448;7.904;2023-02-21T02:49:36;98594.75;;;4.20;76.62
46392;BME280;32098;49.448;7.904;2023-02-21T02:52:07;98576.75;;;3.86;77.81
46392;BME280;32098;49.448;7.904;2023-02-21T02:54:36;98598.03;;;4.07;78.93
46392;BME280;32098;49.448;7.904;2023-02-21T02:57:04;98596.00;;;4.09;79.55
46392;BME280;32098;49.448;7.904;2023-02-21T02:59:43;98598.94;;;4.15;79.41
46392;BME280;32098;49.448;7.904;2023-02-21T03:02:37;98599.69;;;4.08;77.63
46392;BME280;32098;49.448;7.904;2023-02-21T03:08:20;98570.47;;;3.87;78.65
46392;BME280;32098;49.448;7.904;2023-02-21T03:10:57;98585.63;;;4.08;77.64
46392;BME280;32098;49.448;7.904;2023-02-21T03:13:42;98598.44;;;3.96;78.09
46392;BME280;32098;49.448;7.904;2023-02-21T03:16:22;98596.88;;;3.87;78.69
46392;BME280;32098;49.448;7.904;2023-02-21T03:18:55;98597.22;;;3.62;78.13
46392;BME280;32098;49.448;7.904;2023-02-21T03:21:28;98593.25;;;3.43;78.73
46392;BME280;32098;49.448;7.904;2023-02-21T03:24:00;98602.50;;;3.39;80.14
46392;BME280;32098;49.448;7.904;2023-02-21T03:26:31;98584.66;;;3.18;80.81
46392;BME280;32098;49.448;7.904;2023-02-21T03:29:16;98596.28;;;3.32;80.26
46392;BME280;32098;49.448;7.904;2023-02-21T03:31:46;98514.91;;;2.82;81.93
46392;BME280;32098;49.448;7.904;2023-02-21T03:34:15;98615.66;;;3.47;81.59
46392;BME280;32098;49.448;7.904;2023-02-21T03:36:43;98599.81;;;3.47;79.90
46392;BME280;32098;49.448;7.904;2023-02-21T03:39:12;98590.72;;;3.50;80.38
46392;BME280;32098;49.448;7.904;2023-02-21T03:41:39;98588.66;;;3.37;77.46
46392;BME280;32098;49.448;7.904;2023-02-21T03:44:06;98605.69;;;3.57;77.18
46392;BME280;32098;49.448;7.904;2023-02-21T03:46:33;98592.66;;;3.56;79.10
46392;BME280;32098;49.448;7.904;2023-02-21T03:49:02;98561.09;;;3.39;79.42
46392;BME280;32098;49.448;7.904;2023-02-21T03:51:28;98591.19;;;3.53;79.12
46392;BME280;32098;49.448;7.904;2023-02-21T03:53:56;98563.56;;;3.41;77.83
46392;BME280;32098;49.448;7.904;2023-02-21T03:56:32;98603.69;;;3.59;76.06
46392;BME280;32098;49.448;7.904;2023-02-21T03:59:25;98608.38;;;3.49;75.33
46392;BME280;32098;49.448;7.904;2023-02-21T04:01:52;98594.19;;;3.19;75.14
46392;BME280;32098;49.448;7.904;2023-02-21T04:04:20;98586.53;;;3.02;77.18
46392;BME280;32098;49.448;7.904;2023-02-21T04:06:56;98589.25;;;3.16;79.15
46392;BME280;32098;49.448;7.904;2023-02-21T04:09:24;98604.53;;;3.29;78.46
46392;BME280;32098;49.448;7.904;2023-02-21T04:11:52;98603.91;;;3.27;76.99
46392;BME280;32098;49.448;7.904;2023-02-21T04:14:19;98592.63;;;3.10;77.40
46392;BME280;32098;49.448;7.904;2023-02-21T04:16:47;98547.53;;;2.89;77.05
46392;BME280;32098;49.448;7.904;2023-02-21T04:19:13;98578.50;;;2.95;75.91
46392;BME280;32098;49.448;7.904;2023-02-21T04:21:40;98513.16;;;2.36;75.61
46392;BME280;32098;49.448;7.904;2023-02-21T04:24:08;98598.03;;;2.70;75.95
46392;BME280;32098;49.448;7.904;2023-02-21T04:26:35;98498.88;;;2.14;76.55
46392;BME280;32098;49.448;7.904;2023-02-21T04:29:03;98551.13;;;2.49;79.66
46392;BME280;32098;49.448;7.904;2023-02-21T04:31:30;98594.94;;;2.58;78.78
46392;BME280;32098;49.448;7.904;2023-02-21T04:34:01;98596.97;;;2.48;77.46
46392;BME280;32098;49.448;7.904;2023-02-21T04:36:40;98564.72;;;2.22;77.09
46392;BME280;32098;49.448;7.904;2023-02-21T04:39:07;98554.72;;;2.09;77.10
46392;BME280;32098;49.448;7.904;2023-02-21T04:41:34;98583.63;;;2.42;78.49
46392;BME280;32098;49.448;7.904;2023-02-21T04:44:02;98591.06;;;2.38;76.39
46392;BME280;32098;49.448;7.904;2023-02-21T04:46:31;98569.28;;;2.36;76.06
46392;BME280;32098;49.448;7.904;2023-02-21T04:48:58;98597.72;;;2.65;76.41
46392;BME280;32098;49.448;7.904;2023-02-21T04:51:28;98577.16;;;2.52;77.11
46392;BME280;32098;49.448;7.904;2023-02-21T04:53:56;98571.28;;;2.42;76.65
46392;BME280;32098;49.448;7.904;2023-02-21T04:56:24;98599.75;;;2.47;76.85
46392;BME280;32098;49.448;7.904;2023-02-21T04:58:53;98595.81;;;2.51;77.02
46392;BME280;32098;49.448;7.904;2023-02-21T05:01:27;98591.19;;;2.53;78.37
46392;BME280;32098;49.448;7.904;2023-02-21T05:03:54;98583.63;;;2.42;79.26
46392;BME280;32098;49.448;7.904;2023-02-21T05:06:24;98572.94;;;2.27;80.08
46392;BME280;32098;49.448;7.904;2023-02-21T05:08:51;98588.41;;;2.38;80.71
46392;BME280;32098;49.448;7.904;2023-02-21T05:11:19;98593.16;;;2.51;80.51
46392;BME280;32098;49.448;7.904;2023-02-21T05:13:46;98593.31;;;2.49;80.72
46392;BME280;32098;49.448;7.904;2023-02-21T05:16:14;98575.88;;;2.48;79.13
46392;BME280;32098;49.448;7.904;2023-02-21T05:18:42;98587.41;;;2.47;78.52
46392;BME280;32098;49.448;7.904;2023-02-21T05:21:09;98573.72;;;2.44;78.81
46392;BME280;32098;49.448;7.904;2023-02-21T05:23:38;98596.28;;;2.54;79.15
46392;BME280;32098;49.448;7.904;2023-02-21T05:26:10;98534.44;;;2.18;78.36
46392;BME280;32098;49.448;7.904;2023-02-21T05:28:39;98559.44;;;2.38;78.18
46392;BME280;32098;49.448;7.904;2023-02-21T05:31:06;98521.41;;;2.25;79.13
46392;BME280;32098;49.448;7.904;2023-02-21T05:33:33;98584.59;;;2.49;77.84
46392;BME280;32098;49.448;7.904;2023-02-21T05:36:00;98584.75;;;2.55;76.36
46392;BME280;32098;49.448;7.904;2023-02-21T05:38:27;98591.31;;;2.51;76.17
46392;BME280;32098;49.448;7.904;2023-02-21T05:40:54;98588.09;;;2.33;76.89
46392;BME280;32098;49.448;7.904;2023-02-21T05:43:21;98592.38;;;2.34;76.28
46392;BME280;32098;49.448;7.904;2023-02-21T05:45:48;98536.31;;;1.69;77.92
46392;BME280;32098;49.448;7.904;2023-02-21T05:48:14;98590.47;;;1.96;76.67
46392;BME280;32098;49.448;7.904;2023-02-21T05:50:42;98554.94;;;1.68;78.58
46392;BME280;32098;49.448;7.904;2023-02-21T05:53:10;98569.22;;;1.81;78.01
46392;BME280;32098;49.448;7.904;2023-02-21T05:55:39;98585.84;;;2.06;78.40
46392;BME280;32098;49.448;7.904;2023-02-21T05:58:06;98591.59;;;3.11;97.63
46392;BME280;32098;49.448;7.904;2023-02-21T06:00:33;98605.94;;;4.07;100.00
46392;BME280;32098;49.448;7.904;2023-02-21T06:02:59;98604.56;;;4.63;96.98
46392;BME280;32098;49.448;7.904;2023-02-21T06:05:30;98533.91;;;4.93;89.39
46392;BME280;32098;49.448;7.904;2023-02-21T06:07:58;98584.97;;;5.59;83.86
46392;BME280;32098;49.448;7.904;2023-02-21T06:10:24;98582.88;;;5.75;80.57
46392;BME280;32098;49.448;7.904;2023-02-21T06:12:51;98542.34;;;5.18;68.06
46392;BME280;32098;49.448;7.904;2023-02-21T06:15:18;98594.13;;;5.06;68.34
46392;BME280;32098;49.448;7.904;2023-02-21T06:17:45;98575.47;;;4.49;69.70
46392;BME280;32098;49.448;7.904;2023-02-21T06:20:13;98566.72;;;3.96;70.32
46392;BME280;32098;49.448;7.904;2023-02-21T06:22:44;98590.09;;;3.70;70.46
46392;BME280;32098;49.448;7.904;2023-02-21T06:25:12;98568.59;;;3.28;71.01
46392;BME280;32098;49.448;7.904;2023-02-21T06:27:38;98564.81;;;3.00;70.99
46392;BME280;32098;49.448;7.904;2023-02-21T06:30:06;98602.53;;;3.08;71.54
46392;BME280;32098;49.448;7.904;2023-02-21T06:32:33;98573.13;;;2.80;72.55
46392;BME280;32098;49.448;7.904;2023-02-21T06:35:01;98518.78;;;2.25;73.34
46392;BME280;32098;49.448;7.904;2023-02-21T06:37:28;98587.59;;;2.46;74.47
46392;BME280;32098;49.448;7.904;2023-02-21T06:39:55;98601.53;;;2.54;74.52
46392;BME280;32098;49.448;7.904;2023-02-21T06:42:22;98595.69;;;2.28;73.79
46392;BME280;32098;49.448;7.904;2023-02-21T06:44:49;98569.53;;;1.86;74.92
46392;BME280;32098;49.448;7.904;2023-02-21T06:47:16;98598.69;;;1.93;76.17
46392;BME280;32098;49.448;7.904;2023-02-21T06:49:44;98573.50;;;1.90;75.97
46392;BME280;32098;49.448;7.904;2023-02-21T06:52:11;98600.81;;;2.05;75.89
46392;BME280;32098;49.448;7.904;2023-02-21T06:54:41;98559.38;;;1.83;76.00
46392;BME280;32098;49.448;7.904;2023-02-21T06:57:08;98522.03;;;1.47;76.00
46392;BME280;32098;49.448;7.904;2023-02-21T06:59:35;98571.38;;;1.78;76.26
46392;BME280;32098;49.448;7.904;2023-02-21T07:02:02;98574.34;;;1.83;76.36
46392;BME280;32098;49.448;7.904;2023-02-21T07:04:32;98573.66;;;1.89;76.28
46392;BME280;32098;49.448;7.904;2023-02-21T07:06:59;98589.78;;;2.02;76.08
46392;BME280;32098;49.448;7.904;2023-02-21T07:09:25;98560.53;;;1.73;77.32
46392;BME280;32098;49.448;7.904;2023-02-21T07:11:52;98546.72;;;1.71;78.27
46392;BME280;32098;49.448;7.904;2023-02-21T07:14:19;98565.13;;;1.87;78.52
46392;BME280;32098;49.448;7.904;2023-02-21T07:16:46;98508.69;;;1.49;79.52
46392;BME280;32098;49.448;7.904;2023-02-21T07:19:17;98573.97;;;2.02;79.47
46392;BME280;32098;49.448;7.904;2023-02-21T07:21:47;98590.75;;;2.25;79.13
46392;BME280;32098;49.448;7.904;2023-02-21T07:24:15;98580.13;;;2.49;79.94
46392;BME280;32098;49.448;7.904;2023-02-21T07:26:43;98596.03;;;2.88;78.01
46392;BME280;32098;49.448;7.904;2023-02-21T07:29:10;98550.25;;;3.04;77.77
46392;BME280;32098;49.448;7.904;2023-02-21T07:31:36;98534.81;;;3.46;76.12
46392;BME280;32098;49.448;7.904;2023-02-21T07:34:04;98492.50;;;3.54;73.69
46392;BME280;32098;49.448;7.904;2023-02-21T07:36:31;98518.25;;;4.04;72.70
46392;BME280;32098;49.448;7.904;2023-02-21T07:38:57;98586.50;;;4.67;71.27
46392;BME280;32098;49.448;7.904;2023-02-21T07:41:24;98558.81;;;4.84;71.24
46392;BME280;32098;49.448;7.904;2023-02-21T07:43:51;98487.72;;;4.60;70.13
46392;BME280;32098;49.448;7.904;2023-02-21T07:46:19;98593.59;;;5.46;69.03
46392;BME280;32098;49.448;7.904;2023-02-21T07:48:46;98601.44;;;5.75;67.96
46392;BME280;32098;49.448;7.904;2023-02-21T07:51:14;98590.50;;;6.06;68.24
46392;BME280;32098;49.448;7.904;2023-02-21T07:53:41;98555.25;;;6.12;66.28
46392;BME280;32098;49.448;7.904;2023-02-21T07:56:08;98590.19;;;6.50;65.62
46392;BME280;32098;49.448;7.904;2023-02-21T07:58:35;98566.63;;;6.68;64.44
46392;BME280;32098;49.448;7.904;2023-02-21T08:01:06;98593.56;;;6.99;63.19
46392;BME280;32098;49.448;7.904;2023-02-21T08:03:33;98567.31;;;7.24;62.74
46392;BME280;32098;49.448;7.904;2023-02-21T08:06:00;98580.50;;;7.71;61.88
46392;BME280;32098;49.448;7.904;2023-02-21T08:08:27;98545.75;;;7.73;60.42
46392;BME280;32098;49.448;7.904;2023-02-21T08:10:54;98562.75;;;8.05;59.59
46392;BME280;32098;49.448;7.904;2023-02-21T08:13:23;98561.25;;;8.35;59.83
46392;BME280;32098;49.448;7.904;2023-02-21T08:15:51;98525.63;;;8.49;59.76
46392;BME280;32098;49.448;7.904;2023-02-21T08:18:21;98559.28;;;9.01;59.64
46392;BME280;32098;49.448;7.904;2023-02-21T08:20:50;98564.06;;;9.30;59.84
46392;BME280;32098;49.448;7.904;2023-02-21T08:23:18;98558.47;;;9.38;59.80
46392;BME280;32098;49.448;7.904;2023-02-21T08:25:45;98560.00;;;9.59;59.16
46392;BME280;32098;49.448;7.904;2023-02-21T08:28:14;98528.75;;;9.41;59.09
46392;BME280;32098;49.448;7.904;2023-02-21T08:30:42;98561.06;;;9.13;60.21
46392;BME280;32098;49.448;7.904;2023-02-21T08:33:11;98547.72;;;8.56;61.59
46392;BME280;32098;49.448;7.904;2023-02-21T08:35:37;98548.16;;;8.46;63.94
46392;BME280;32098;49.448;7.904;2023-02-21T08:38:04;98546.41;;;8.91;63.33
46392;BME280;32098;49.448;7.904;2023-02-21T08:40:31;98528.16;;;9.33;61.23
46392;BME280;32098;49.448;7.904;2023-02-21T08:42:59;98558.47;;;10.07;60.39
46392;BME280;32098;49.448;7.904;2023-02-21T08:45:27;98549.69;;;10.68;59.04
46392;BME280;32098;49.448;7.904;2023-02-21T08:47:56;98550.19;;;11.12;56.58
46392;BME280;32098;49.448;7.904;2023-02-21T08:50:24;98524.75;;;11.40;55.63
46392;BME280;32098;49.448;7.904;2023-02-21T08:52:57;98507.44;;;11.54;55.49
46392;BME280;32098;49.448;7.904;2023-02-21T08:55:24;98536.50;;;11.80;54.22
46392;BME280;32098;49.448;7.904;2023-02-21T08:57:52;98549.34;;;12.13;53.81
46392;BME280;32098;49.448;7.904;2023-02-21T09:00:22;98532.09;;;12.09;52.60
46392;BME280;32098;49.448;7.904;2023-02-21T09:02:51;98542.38;;;12.35;52.82
46392;BME280;32098;49.448;7.904;2023-02-21T09:05:20;98539.59;;;12.53;52.32
46392;BME280;32098;49.448;7.904;2023-02-21T09:07:50;98454.94;;;12.06;50.56
46392;BME280;32098;49.448;7.904;2023-02-21T09:10:21;98530.22;;;12.79;51.65
46392;BME280;32098;49.448;7.904;2023-02-21T09:12:49;98471.31;;;12.67;50.88
46392;BME280;32098;49.448;7.904;2023-02-21T09:15:16;98530.53;;;13.06;50.15
46392;BME280;32098;49.448;7.904;2023-02-21T09:17:44;98495.34;;;13.02;49.46
46392;BME280;32098;49.448;7.904;2023-02-21T09:20:16;98484.16;;;12.93;49.78
46392;BME280;32098;49.448;7.904;2023-02-21T09:22:44;98515.22;;;13.18;48.89
46392;BME280;32098;49.448;7.904;2023-02-21T09:25:12;98491.72;;;13.08;48.74
46392;BME280;32098;49.448;7.904;2023-02-21T09:27:39;98514.84;;;13.26;48.50
46392;BME280;32098;49.448;7.904;2023-02-21T09:30:12;98525.50;;;13.37;49.17
46392;BME280;32098;49.448;7.904;2023-02-21T09:32:40;98520.09;;;13.49;48.67
46392;BME280;32098;49.448;7.904;2023-02-21T09:35:08;98502.84;;;13.45;49.09
46392;BME280;32098;49.448;7.904;2023-02-21T09:37:37;98522.97;;;13.59;48.39
46392;BME280;32098;49.448;7.904;2023-02-21T09:40:16;98515.59;;;13.66;48.22
46392;BME280;32098;49.448;7.904;2023-02-21T09:42:44;98491.84;;;13.58;48.03
46392;BME280;32098;49.448;7.904;2023-02-21T09:45:15;98488.66;;;13.61;48.29
46392;BME280;32098;49.448;7.904;2023-02-21T09:47:43;98506.91;;;13.76;48.15
46392;BME280;32098;49.448;7.904;2023-02-21T09:50:15;98460.69;;;13.29;47.86
46392;BME280;32098;49.448;7.904;2023-02-21T09:52:45;98508.56;;;13.93;48.44
46392;BME280;32098;49.448;7.904;2023-02-21T09:55:27;98520.09;;;14.10;48.39
46392;BME280;32098;49.448;7.904;2023-02-21T09:57:56;98525.47;;;14.10;47.95
46392;BME280;32098;49.448;7.904;2023-02-21T10:00:42;98415.97;;;13.62;48.08
46392;BME280;32098;49.448;7.904;2023-02-21T10:09:05;98505.34;;;14.29;47.93
46392;BME280;32098;49.448;7.904;2023-02-21T10:20:29;98493.19;;;14.44;47.44
46392;BME280;32098;49.448;7.904;2023-02-21T10:23:00;98484.06;;;14.45;47.56
46392;BME280;32098;49.448;7.904;2023-02-21T10:25:30;98485.72;;;14.46;47.78
46392;BME280;32098;49.448;7.904;2023-02-21T10:27:58;98490.00;;;14.47;48.01
46392;BME280;32098;49.448;7.904;2023-02-21T10:30:35;98492.56;;;14.53;47.75
46392;BME280;32098;49.448;7.904;2023-02-21T10:33:03;98458.09;;;14.33;48.10
46392;BME280;32098;49.448;7.904;2023-02-21T10:35:35;98436.72;;;14.22;47.90
46392;BME280;32098;49.448;7.904;2023-02-21T10:38:06;98463.06;;;14.42;47.44
46392;BME280;32098;49.448;7.904;2023-02-21T10:40:41;98468.13;;;14.55;47.97
46392;BME280;32098;49.448;7.904;2023-02-21T10:48:38;98450.50;;;14.47;47.83
46392;BME280;32098;49.448;7.904;2023-02-21T10:51:28;98452.53;;;14.57;47.54
46392;BME280;32098;49.448;7.904;2023-02-21T10:54:16;98423.31;;;14.44;47.02
46392;BME280;32098;49.448;7.904;2023-02-21T10:56:46;98421.50;;;14.49;47.17
46392;BME280;32098;49.448;7.904;2023-02-21T10:59:23;98473.88;;;14.85;47.17
46392;BME280;32098;49.448;7.904;2023-02-21T11:01:52;98468.16;;;14.81;46.88
46392;BME280;32098;49.448;7.904;2023-02-21T11:06:53;98428.97;;;14.64;46.49
46392;BME280;32098;49.448;7.904;2023-02-21T11:09:35;98455.88;;;14.85;46.53
46392;BME280;32098;49.448;7.904;2023-02-21T11:12:25;98459.50;;;14.96;46.85
46392;BME280;32098;49.448;7.904;2023-02-21T11:17:23;98452.53;;;15.00;46.60
46392;BME280;32098;49.448;7.904;2023-02-21T11:19:54;98445.56;;;15.04;45.55
46392;BME280;32098;49.448;7.904;2023-02-21T11:22:25;98446.72;;;15.08;45.94
46392;BME280;32098;49.448;7.904;2023-02-21T11:25:05;98434.41;;;15.17;46.12
46392;BME280;32098;49.448;7.904;2023-02-21T11:27:35;98442.16;;;15.14;46.36
46392;BME280;32098;49.448;7.904;2023-02-21T11:30:15;98418.13;;;15.02;46.62
46392;BME280;32098;49.448;7.904;2023-02-21T11:32:51;98379.59;;;14.70;44.35
46392;BME280;32098;49.448;7.904;2023-02-21T11:35:22;98428.81;;;14.97;44.81
46392;BME280;32098;49.448;7.904;2023-02-21T11:40:30;98414.72;;;14.85;45.71
46392;BME280;32098;49.448;7.904;2023-02-21T11:43:17;98416.41;;;14.91;46.03
46392;BME280;32098;49.448;7.904;2023-02-21T11:45:59;98404.56;;;14.92;46.02
46392;BME280;32098;49.448;7.904;2023-02-21T11:48:32;98368.13;;;14.79;45.98
46392;BME280;32098;49.448;7.904;2023-02-21T11:51:15;98399.91;;;14.82;45.41
46392;BME280;32098;49.448;7.904;2023-02-21T11:53:43;98348.59;;;14.41;46.34
46392;BME280;32098;49.448;7.904;2023-02-21T11:56:19;98393.25;;;14.63;46.12
46392;BME280;32098;49.448;7.904;2023-02-21T11:58:53;98394.84;;;14.64;46.19
46392;BME280;32098;49.448;7.904;2023-02-21T12:01:39;98385.41;;;14.62;45.43
46392;BME280;32098;49.448;7.904;2023-02-21T12:09:48;98350.19;;;14.42;46.99
46392;BME280;32098;49.448;7.904;2023-02-21T12:12:38;98383.75;;;14.56;47.15
46392;BME280;32098;49.448;7.904;2023-02-21T12:15:15;98370.16;;;14.46;47.02
46392;BME280;32098;49.448;7.904;2023-02-21T12:17:53;98361.22;;;14.40;46.64
46392;BME280;32098;49.448;7.904;2023-02-21T12:23:39;98368.66;;;14.33;47.09
46392;BME280;32098;49.448;7.904;2023-02-21T12:29:00;98358.13;;;14.31;46.55
46392;BME280;32098;49.448;7.904;2023-02-21T12:32:04;98327.56;;;14.11;45.57
46392;BME280;32098;49.448;7.904;2023-02-21T12:41:00;98345.75;;;14.09;47.32
46392;BME280;32098;49.448;7.904;2023-02-21T12:46:27;98329.38;;;13.89;46.79
46392;BME280;32098;49.448;7.904;2023-02-21T12:49:08;98310.28;;;13.85;46.00
46392;BME280;32098;49.448;7.904;2023-02-21T12:51:40;98313.28;;;13.89;44.96
46392;BME280;32098;49.448;7.904;2023-02-21T12:54:15;98302.38;;;13.95;45.18
46392;BME280;32098;49.448;7.904;2023-02-21T12:59:31;98298.38;;;13.98;45.75
46392;BME280;32098;49.448;7.904;2023-02-21T13:02:08;98307.94;;;14.10;45.70
46392;BME280;32098;49.448;7.904;2023-02-21T13:04:45;98290.31;;;13.98;45.40
46392;BME280;32098;49.448;7.904;2023-02-21T13:07:17;98292.25;;;14.02;44.84
46392;BME280;32098;49.448;7.904;2023-02-21T13:10:17;98226.63;;;13.72;44.65
46392;BME280;32098;49.448;7.904;2023-02-21T13:12:57;98292.69;;;14.16;45.01
46392;BME280;32098;49.448;7.904;2023-02-21T13:15:29;98282.75;;;14.16;45.23
46392;BME280;32098;49.448;7.904;2023-02-21T13:18:16;98283.88;;;14.20;44.70
46392;BME280;32098;49.448;7.904;2023-02-21T13:20:55;98274.25;;;14.24;44.46
46392;BME280;32098;49.448;7.904;2023-02-21T13:23:28;98281.47;;;14.24;43.33
46392;BME280;32098;49.448;7.904;2023-02-21T13:29:41;98236.47;;;14.09;44.70
46392;BME280;32098;49.448;7.904;2023-02-21T13:32:13;98265.41;;;14.29;44.59
46392;BME280;32098;49.448;7.904;2023-02-21T13:37:20;98258.94;;;14.25;43.43
46392;BME280;32098;49.448;7.904;2023-02-21T13:39:56;98264.34;;;14.03;44.19
46392;BME280;32098;49.448;7.904;2023-02-21T13:42:29;98237.25;;;13.83;44.63
46392;BME280;32098;49.448;7.904;2023-02-21T13:58:38;98239.88;;;14.26;43.22
46392;BME280;32098;49.448;7.904;2023-02-21T14:07:40;98212.97;;;14.21;42.60
46392;BME280;32098;49.448;7.904;2023-02-21T14:13:02;98217.94;;;14.35;41.03
46392;BME280;32098;49.448;7.904;2023-02-21T14:15:43;98166.00;;;13.97;40.70
46392;BME280;32098;49.448;7.904;2023-02-21T14:18:20;98224.06;;;14.30;40.63
46392;BME280;32098;49.448;7.904;2023-02-21T14:20:49;98174.59;;;13.99;39.99
46392;BME280;32098;49.448;7.904;2023-02-21T14:23:19;98215.66;;;14.21;40.81
46392;BME280;32098;49.448;7.904;2023-02-21T14:25:58;98222.38;;;14.24;41.66
46392;BME280;32098;49.448;7.904;2023-02-21T14:28:58;98223.25;;;14.29;41.95
46392;BME280;32098;49.448;7.904;2023-02-21T14:31:51;98219.41;;;14.20;41.57
46392;BME280;32098;49.448;7.904;2023-02-21T14:34:24;98182.38;;;13.96;41.17
46392;BME280;32098;49.448;7.904;2023-02-21T14:36:55;98141.56;;;13.72;41.22
46392;BME280;32098;49.448;7.904;2023-02-21T14:39:23;98138.59;;;13.74;41.95
46392;BME280;32098;49.448;7.904;2023-02-21T14:42:18;98211.47;;;14.30;41.81
46392;BME280;32098;49.448;7.904;2023-02-21T14:45:03;98146.53;;;13.85;43.20
46392;BME280;32098;49.448;7.904;2023-02-21T14:50:28;98161.56;;;13.86;39.75
46392;BME280;32098;49.448;7.904;2023-02-21T14:53:32;98202.69;;;14.13;40.45
46392;BME280;32098;49.448;7.904;2023-02-21T14:59:26;98191.84;;;14.03;41.36
46392;BME280;32098;49.448;7.904;2023-02-21T15:02:37;98198.31;;;14.07;41.96
46392;BME280;32098;49.448;7.904;2023-02-21T15:05:32;98189.72;;;14.05;42.06
46392;BME280;32098;49.448;7.904;2023-02-21T15:08:05;98194.06;;;14.11;41.54
46392;BME280;32098;49.448;7.904;2023-02-21T15:10:41;98188.47;;;13.91;42.58
46392;BME280;32098;49.448;7.904;2023-02-21T15:13:27;98187.47;;;13.97;42.59
46392;BME280;32098;49.448;7.904;2023-02-21T15:15:59;98160.13;;;13.79;42.59
46392;BME280;32098;49.448;7.904;2023-02-21T15:18:55;98141.56;;;13.72;42.62
46392;BME280;32098;49.448;7.904;2023-02-21T15:21:23;98140.38;;;13.63;43.13
46392;BME280;32098;49.448;7.904;2023-02-21T15:24:05;98180.63;;;13.85;42.72
46392;BME280;32098;49.448;7.904;2023-02-21T15:26:34;98156.22;;;13.64;43.96
46392;BME280;32098;49.448;7.904;2023-02-21T15:29:11;98174.97;;;13.86;44.24